Empress — WDG4191 — position and weather

sailwx.info

Track history (hours):
 
Tides and Currents Weather Stations Pressure Air Temp Water Temp Dewpoint Dewpoint Depression Visibility Wind Speed Wind Dir Waves Ship Positions

Empress

Owner: Robertson Mr, Gerry K, Sausalito, CA. More information available from US FCC via Universal Licensing System and Coast Guard Vessel Documentation Center.

Last reported at 2018-Jul-22 17:28 UTC. Time now 2018-Jul-22 17:53 UTC.
Position N 37°55' W 122°21'.

Type: Pleasure craft. MMSI: 338142414.

Date/timePositionNaut miles runAvg speedWind from/ knotsBaromVisibWave heightAir tempDewpointWater temp
2018-Jul-22 17:28N 37°55' W 122°21'0 0.0
2018-Jul-22 16:58N 37°55' W 122°21'0 0.0
2018-Jul-22 16:28N 37°55' W 122°21'0 0.0
2018-Jul-22 15:55N 37°55' W 122°21'0 0.0
2018-Jul-22 14:58N 37°55' W 122°21'0 0.0
2018-Jul-22 14:25N 37°55' W 122°21'0 0.0
2018-Jul-22 13:58N 37°55' W 122°21'0 0.0
2018-Jul-22 13:28N 37°55' W 122°21'0 0.0
2018-Jul-22 12:58N 37°55' W 122°21'0 0.0
2018-Jul-22 12:28N 37°55' W 122°21'0 0.0
2018-Jul-22 11:49N 37°55' W 122°21'0 0.0
2018-Jul-22 11:28N 37°55' W 122°21'0 0.0
2018-Jul-22 10:55N 37°55' W 122°21'0 0.0
2018-Jul-22 10:25N 37°55' W 122°21'0 0.0
2018-Jul-22 09:58N 37°55' W 122°21'0 0.2
2018-Jul-22 09:30N 37°55' W 122°21'0 0.2
2018-Jul-22 09:00N 37°55' W 122°21'2 3.6
2018-Jul-22 08:30N 37°54' W 122°24'2 4.8
2018-Jul-22 08:00N 37°53' W 122°26'3 5.8
2018-Jul-22 07:30N 37°50' W 122°28'1 1.2
2018-Jul-22 07:00N 37°51' W 122°27'4 8.3
2018-Jul-22 06:30N 37°54' W 122°24'2 4.6
2018-Jul-22 05:59N 37°55' W 122°21'0 0.0
2018-Jul-22 05:29N 37°55' W 122°21'0 0.0
2018-Jul-22 04:59N 37°55' W 122°21'1 2.1
2018-Jul-22 04:30N 37°54' W 122°22'4 7.3
2018-Jul-22 04:00N 37°52' W 122°26'3 6.1
2018-Jul-22 03:30N 37°50' W 122°28'0 0.5
2018-Jul-22 03:00N 37°50' W 122°29'2 4.1
2018-Jul-22 02:30N 37°52' W 122°29'1 2.5
2018-Jul-22 02:00N 37°52' W 122°27'2 4.1
2018-Jul-22 01:30N 37°54' W 122°28'2 3.8
2018-Jul-22 01:00N 37°53' W 122°25'3 6.1
2018-Jul-22 00:30N 37°50' W 122°25'2 4.5
2018-Jul-22 00:00N 37°49' W 122°28'1 1.5
2018-Jul-21 23:28N 37°50' W 122°28'0 0.0
2018-Jul-21 22:58N 37°50' W 122°28'0 0.7
2018-Jul-21 22:30N 37°50' W 122°29'2 4.5
2018-Jul-21 22:00N 37°52' W 122°29'1 2.8
2018-Jul-21 21:29N 37°52' W 122°27'1 3.0
2018-Jul-21 21:00N 37°53' W 122°26'2 4.8
2018-Jul-21 20:30N 37°51' W 122°25'2 3.8
2018-Jul-21 20:00N 37°49' W 122°27'2 3.4
2018-Jul-21 19:31N 37°50' W 122°29'0 0.4
2018-Jul-21 18:58N 37°50' W 122°28'0 0.0
2018-Jul-21 18:27N 37°50' W 122°28'1 1.9
2018-Jul-21 18:00N 37°51' W 122°28'3 7.0
2018-Jul-21 17:30N 37°53' W 122°25'3 6.6
2018-Jul-21 17:00N 37°55' W 122°21'0 0.0
2018-Jul-21 16:30N 37°55' W 122°21'0 0.0
2018-Jul-21 16:00N 37°55' W 122°21'0 0.0
2018-Jul-21 15:30N 37°55' W 122°21'0 0.0
2018-Jul-21 15:00N 37°55' W 122°21'0 0.0
2018-Jul-21 14:30N 37°55' W 122°21'0 0.0
2018-Jul-21 13:27N 37°55' W 122°21'0 0.0
2018-Jul-21 13:00N 37°55' W 122°21'0 0.0
2018-Jul-21 12:30N 37°55' W 122°21'0 0.0
2018-Jul-21 12:00N 37°55' W 122°21'0 0.0
2018-Jul-21 11:30N 37°55' W 122°21'0 0.0
2018-Jul-21 11:00N 37°55' W 122°21'0 0.0
2018-Jul-21 10:30N 37°55' W 122°21'0 0.0
2018-Jul-21 10:00N 37°55' W 122°21'0 0.0
2018-Jul-21 09:30N 37°55' W 122°21'0 0.0
2018-Jul-21 09:00N 37°55' W 122°21'0 0.0
2018-Jul-21 08:30N 37°55' W 122°21'0 0.0
2018-Jul-21 08:00N 37°55' W 122°21'0 0.0
2018-Jul-21 07:30N 37°55' W 122°21'0 0.0
2018-Jul-21 07:00N 37°55' W 122°21'0 0.0
2018-Jul-21 06:30N 37°55' W 122°21'0 0.0
2018-Jul-21 06:00N 37°55' W 122°21'0 0.0
2018-Jul-21 05:30N 37°55' W 122°21'0 0.0
2018-Jul-21 05:00N 37°55' W 122°21'0 0.0
2018-Jul-21 04:30N 37°55' W 122°21'0 0.0
2018-Jul-21 04:00N 37°55' W 122°21'0 0.0
2018-Jul-21 03:30N 37°55' W 122°21'0 0.0
2018-Jul-21 03:00N 37°55' W 122°21'0 0.0
2018-Jul-21 02:27N 37°55' W 122°21'0 0.0
2018-Jul-21 02:00N 37°55' W 122°21'0 0.0
2018-Jul-21 01:30N 37°55' W 122°21'0 0.5
2018-Jul-21 01:00N 37°55' W 122°21'2 3.2
2018-Jul-21 00:30N 37°53' W 122°22'2 4.7
2018-Jul-20 23:58N 37°52' W 122°19'0 0.0
2018-Jul-20 23:28N 37°52' W 122°19'0 0.0
2018-Jul-20 22:58N 37°52' W 122°19'0 0.1
2018-Jul-20 22:29N 37°52' W 122°19'3 6.7
2018-Jul-20 22:00N 37°53' W 122°23'2 3.5
2018-Jul-20 21:27N 37°55' W 122°21'0 0.0
2018-Jul-20 20:57N 37°55' W 122°21'0 0.0
2018-Jul-20 20:27N 37°55' W 122°21'0 0.0
2018-Jul-20 20:00N 37°55' W 122°21'0 0.0
2018-Jul-20 19:30N 37°55' W 122°21'0 0.0
2018-Jul-20 19:00N 37°55' W 122°21'0 0.0
2018-Jul-20 18:30N 37°55' W 122°21'0 0.0
2018-Jul-20 18:00N 37°55' W 122°21'0 0.0
2018-Jul-20 17:27N 37°55' W 122°21'0 0.0
2018-Jul-20 17:00N 37°55' W 122°21'0 0.0
2018-Jul-20 16:30N 37°55' W 122°21'0 0.0
2018-Jul-20 16:00N 37°55' W 122°21'0 0.0
2018-Jul-20 15:24N 37°55' W 122°21'0 0.0
2018-Jul-20 15:00N 37°55' W 122°21'0 0.0
2018-Jul-20 14:27N 37°55' W 122°21'0 0.0
2018-Jul-20 14:00N 37°55' W 122°21'0 0.0
2018-Jul-20 13:30N 37°55' W 122°21'0 0.0
2018-Jul-20 13:00N 37°55' W 122°21'0 0.0
2018-Jul-20 12:30N 37°55' W 122°21'0 0.0
2018-Jul-20 12:00N 37°55' W 122°21'0 0.0
2018-Jul-20 11:30N 37°55' W 122°21'0 0.0
2018-Jul-20 11:00N 37°55' W 122°21'0 0.0
2018-Jul-20 10:30N 37°55' W 122°21'0 0.0
2018-Jul-20 10:00N 37°55' W 122°21'0 0.0
2018-Jul-20 09:30N 37°55' W 122°21'0 0.0
2018-Jul-20 09:00N 37°55' W 122°21'0 0.0
2018-Jul-20 08:30N 37°55' W 122°21'0 0.0
2018-Jul-20 08:00N 37°55' W 122°21'0 0.0
2018-Jul-20 07:30N 37°55' W 122°21'2 4.3
2018-Jul-20 07:00N 37°54' W 122°23'4 7.6
2018-Jul-20 06:31N 37°50' W 122°23'3 5.7
2018-Jul-20 05:58N 37°47' W 122°23'0 0.5
2018-Jul-20 05:30N 37°47' W 122°23'0 0.5
2018-Jul-20 05:00N 37°47' W 122°23'2 4.1
2018-Jul-20 04:30N 37°49' W 122°24'2 4.1
2018-Jul-20 04:00N 37°50' W 122°26'1 2.5
2018-Jul-20 03:30N 37°49' W 122°28'3 6.8
2018-Jul-20 03:00N 37°48' W 122°23'1 2.0
2018-Jul-20 02:28N 37°47' W 122°23'0 0.1
2018-Jul-20 02:00N 37°47' W 122°23'3 6.6
2018-Jul-20 01:30N 37°50' W 122°23'3 6.9
2018-Jul-20 01:00N 37°54' W 122°24'2 4.3
2018-Jul-20 00:28N 37°55' W 122°21'0 0.0
2018-Jul-19 23:58N 37°55' W 122°21'0 0.0
2018-Jul-19 23:28N 37°55' W 122°21'0 0.0
2018-Jul-19 22:49N 37°55' W 122°21'0 0.0
2018-Jul-19 22:28N 37°55' W 122°21'0 0.0
2018-Jul-19 21:58N 37°55' W 122°21'0 0.0
2018-Jul-19 21:28N 37°55' W 122°21'0 0.0
2018-Jul-19 20:55N 37°55' W 122°21'0 0.0
2018-Jul-19 20:28N 37°55' W 122°21'0 0.0
2018-Jul-19 19:58N 37°55' W 122°21'0 0.0
2018-Jul-19 19:28N 37°55' W 122°21'0 0.0
2018-Jul-19 18:58N 37°55' W 122°21'0 0.0
2018-Jul-19 18:25N 37°55' W 122°21'0 0.0
2018-Jul-19 17:57N 37°55' W 122°21'0 0.0
2018-Jul-19 17:30N 37°55' W 122°21'0 0.0
2018-Jul-19 17:00N 37°55' W 122°21'0 0.0
2018-Jul-19 16:24N 37°55' W 122°21'0 0.0
2018-Jul-19 15:54N 37°55' W 122°21'0 0.0
2018-Jul-19 15:30N 37°55' W 122°21'0 0.0
2018-Jul-19 15:00N 37°55' W 122°21'0 0.0
2018-Jul-19 14:30N 37°55' W 122°21'0 0.0
2018-Jul-19 13:30N 37°55' W 122°21'0 0.0
2018-Jul-19 13:00N 37°55' W 122°21'0 0.0
2018-Jul-19 12:30N 37°55' W 122°21'0 0.0
2018-Jul-19 12:00N 37°55' W 122°21'0 0.0
2018-Jul-19 11:30N 37°55' W 122°21'0 0.0
2018-Jul-19 11:00N 37°55' W 122°21'0 0.0
2018-Jul-19 10:30N 37°55' W 122°21'0 0.0
2018-Jul-19 10:00N 37°55' W 122°21'0 0.0
2018-Jul-19 09:30N 37°55' W 122°21'0 0.0
2018-Jul-19 09:00N 37°55' W 122°21'0 0.0
2018-Jul-19 08:30N 37°55' W 122°21'0 0.0
2018-Jul-19 08:00N 37°55' W 122°21'0 0.0
2018-Jul-19 07:27N 37°55' W 122°21'0 0.0
2018-Jul-19 07:00N 37°55' W 122°21'0 0.0
2018-Jul-19 06:30N 37°55' W 122°21'0 0.0
2018-Jul-19 06:00N 37°55' W 122°21'0 0.0
2018-Jul-19 05:30N 37°55' W 122°21'0 0.0
2018-Jul-19 05:00N 37°55' W 122°21'0 0.0
2018-Jul-19 04:30N 37°55' W 122°21'0 0.0
2018-Jul-19 04:00N 37°55' W 122°21'0 0.0
2018-Jul-19 03:30N 37°55' W 122°21'0 0.0
2018-Jul-19 03:00N 37°55' W 122°21'0 0.0
2018-Jul-19 02:30N 37°55' W 122°21'0 0.0
2018-Jul-19 02:00N 37°55' W 122°21'0 0.0
2018-Jul-19 01:30N 37°55' W 122°21'0 0.0
2018-Jul-19 00:57N 37°55' W 122°21'0 0.0
2018-Jul-19 00:30N 37°55' W 122°21'0 0.0
2018-Jul-19 00:00N 37°55' W 122°21'0 0.0
2018-Jul-18 23:30N 37°55' W 122°21'0 0.0
2018-Jul-18 23:00N 37°55' W 122°21'0 0.0
2018-Jul-18 22:30N 37°55' W 122°21'0 0.0
2018-Jul-18 22:00N 37°55' W 122°21'0 0.0
2018-Jul-18 21:30N 37°55' W 122°21'0 0.0
2018-Jul-18 21:00N 37°55' W 122°21'0 0.0
2018-Jul-18 20:30N 37°55' W 122°21'0 0.0
2018-Jul-18 19:59N 37°55' W 122°21'0 0.0
2018-Jul-18 19:29N 37°55' W 122°21'0 0.0
2018-Jul-18 18:59N 37°55' W 122°21'0 0.0
2018-Jul-18 18:29N 37°55' W 122°21'0 0.0
2018-Jul-18 17:59N 37°55' W 122°21'0 0.0
2018-Jul-18 17:29N 37°55' W 122°21'0 0.0
2018-Jul-18 16:53N 37°55' W 122°21'0 0.0
2018-Jul-18 16:29N 37°55' W 122°21'0 0.0
2018-Jul-18 15:59N 37°55' W 122°21'0 0.0
2018-Jul-18 15:29N 37°55' W 122°21'0 0.0
2018-Jul-18 14:44N 37°55' W 122°21'0 0.0
2018-Jul-18 14:26N 37°55' W 122°21'0 0.0
2018-Jul-18 13:26N 37°55' W 122°21'0 0.0
2018-Jul-18 12:56N 37°55' W 122°21'0 0.0
2018-Jul-18 12:26N 37°55' W 122°21'0 0.0
2018-Jul-18 11:44N 37°55' W 122°21'0 0.0
2018-Jul-18 11:26N 37°55' W 122°21'0 0.0
2018-Jul-18 10:26N 37°55' W 122°21'0 0.0
2018-Jul-18 09:59N 37°55' W 122°21'0 0.0
2018-Jul-18 09:26N 37°55' W 122°21'0 0.0
2018-Jul-18 08:59N 37°55' W 122°21'0 0.0
2018-Jul-18 08:29N 37°55' W 122°21'0 0.0
2018-Jul-18 07:56N 37°55' W 122°21'0 0.0
2018-Jul-18 07:23N 37°55' W 122°21'0 0.0
2018-Jul-18 06:59N 37°55' W 122°21'0 0.0
2018-Jul-18 06:29N 37°55' W 122°21'0 0.0
2018-Jul-18 05:59N 37°55' W 122°21'0 0.0
2018-Jul-18 05:29N 37°55' W 122°21'0 0.0
2018-Jul-18 04:59N 37°55' W 122°21'0 0.0
2018-Jul-18 04:26N 37°55' W 122°21'0 0.0
2018-Jul-18 03:59N 37°55' W 122°21'0 0.0
2018-Jul-18 03:29N 37°55' W 122°21'0 0.0
2018-Jul-18 02:59N 37°55' W 122°21'0 0.0
2018-Jul-18 02:23N 37°55' W 122°21'0 0.0
2018-Jul-18 01:59N 37°55' W 122°21'0 0.0
2018-Jul-18 01:26N 37°55' W 122°21'0 0.0
2018-Jul-18 00:59N 37°55' W 122°21'0 0.0
2018-Jul-18 00:23N 37°55' W 122°21'0 0.0
2018-Jul-17 23:56N 37°55' W 122°21'0 0.0
2018-Jul-17 23:29N 37°55' W 122°21'0 0.0
2018-Jul-17 22:59N 37°55' W 122°21'0 0.0
2018-Jul-17 22:29N 37°55' W 122°21'0 0.0
2018-Jul-17 21:59N 37°55' W 122°21'0 0.0
2018-Jul-17 21:26N 37°55' W 122°21'0 0.0
2018-Jul-17 20:56N 37°55' W 122°21'0 0.0
2018-Jul-17 20:26N 37°55' W 122°21'0 0.0
2018-Jul-17 19:59N 37°55' W 122°21'0 0.0
2018-Jul-17 19:26N 37°55' W 122°21'0 0.0
2018-Jul-17 18:59N 37°55' W 122°21'0 0.0
2018-Jul-17 18:29N 37°55' W 122°21'0 0.0
2018-Jul-17 17:56N 37°55' W 122°21'0 0.0
2018-Jul-17 17:29N 37°55' W 122°21'0 0.0
2018-Jul-17 16:59N 37°55' W 122°21'0 0.0
2018-Jul-17 16:29N 37°55' W 122°21'0 0.0
2018-Jul-17 15:59N 37°55' W 122°21'0 0.0
2018-Jul-17 15:29N 37°55' W 122°21'0 0.0
2018-Jul-17 14:59N 37°55' W 122°21'0 0.0
2018-Jul-17 14:29N 37°55' W 122°21'0 0.0
2018-Jul-17 13:59N 37°55' W 122°21'0 0.0
2018-Jul-17 13:26N 37°55' W 122°21'0 0.0
2018-Jul-17 12:59N 37°55' W 122°21'0 0.0
2018-Jul-17 12:29N 37°55' W 122°21'0 0.0
2018-Jul-17 11:59N 37°55' W 122°21'0 0.0
2018-Jul-17 11:29N 37°55' W 122°21'0 0.0
2018-Jul-17 10:59N 37°55' W 122°21'0 0.0
2018-Jul-17 10:29N 37°55' W 122°21'0 0.0
2018-Jul-17 09:59N 37°55' W 122°21'0 0.0
2018-Jul-17 09:29N 37°55' W 122°21'0 0.0
2018-Jul-17 08:59N 37°55' W 122°21'0 0.0
2018-Jul-17 08:29N 37°55' W 122°21'0 0.0
2018-Jul-17 07:59N 37°55' W 122°21'0 0.0
2018-Jul-17 07:29N 37°55' W 122°21'0 0.0
2018-Jul-17 06:59N 37°55' W 122°21'0 0.0
2018-Jul-17 06:29N 37°55' W 122°21'0 0.0
2018-Jul-17 05:59N 37°55' W 122°21'0 0.0
2018-Jul-17 05:28N 37°55' W 122°21'0 0.0
2018-Jul-17 04:58N 37°55' W 122°21'0 0.0
2018-Jul-17 04:28N 37°55' W 122°21'0 0.0
2018-Jul-17 03:58N 37°55' W 122°21'0 0.0
2018-Jul-17 03:28N 37°55' W 122°21'0 0.0
2018-Jul-17 02:58N 37°55' W 122°21'0 0.0
2018-Jul-17 02:28N 37°55' W 122°21'0 0.0
2018-Jul-17 01:58N 37°55' W 122°21'0 0.0
2018-Jul-17 01:28N 37°55' W 122°21'0 0.0
2018-Jul-17 00:58N 37°55' W 122°21'0 0.0
2018-Jul-17 00:28N 37°55' W 122°21'0 0.0
2018-Jul-16 23:28N 37°55' W 122°21'0 0.0
2018-Jul-16 22:58N 37°55' W 122°21'0 0.0
2018-Jul-16 22:28N 37°55' W 122°21'0 0.0
2018-Jul-16 21:55N 37°55' W 122°21'0 0.0
2018-Jul-16 21:28N 37°55' W 122°21'0 0.0
2018-Jul-16 20:58N 37°55' W 122°21'0 0.0
2018-Jul-16 20:28N 37°55' W 122°21'0 0.0
2018-Jul-16 19:58N 37°55' W 122°21'0 0.0
2018-Jul-16 19:28N 37°55' W 122°21'0 0.0
2018-Jul-16 18:58N 37°55' W 122°21'0 0.0
2018-Jul-16 18:28N 37°55' W 122°21'0 0.0
2018-Jul-16 17:55N 37°55' W 122°21'0 0.0
2018-Jul-16 17:28N 37°55' W 122°21'0 0.0
2018-Jul-16 16:58N 37°55' W 122°21'0 0.0
2018-Jul-16 16:28N 37°55' W 122°21'0 0.0
2018-Jul-16 15:58N 37°55' W 122°21'0 0.0
2018-Jul-16 15:22N 37°55' W 122°21'0 0.0
2018-Jul-16 14:58N 37°55' W 122°21'0 0.0
2018-Jul-16 14:22N 37°55' W 122°21'0 0.0
2018-Jul-16 13:58N 37°55' W 122°21'0 0.0
2018-Jul-16 13:28N 37°55' W 122°21'0 0.0
2018-Jul-16 12:58N 37°55' W 122°21'0 0.0
2018-Jul-16 12:28N 37°55' W 122°21'0 0.0
2018-Jul-16 11:58N 37°55' W 122°21'0 0.0
2018-Jul-16 11:28N 37°55' W 122°21'0 0.0
2018-Jul-16 10:58N 37°55' W 122°21'0 0.0
2018-Jul-16 10:28N 37°55' W 122°21'0 0.1
2018-Jul-16 09:58N 37°55' W 122°21'0 0.1
2018-Jul-16 09:28N 37°55' W 122°21'0 0.0
2018-Jul-16 08:58N 37°55' W 122°21'0 0.0
2018-Jul-16 08:28N 37°55' W 122°21'0 0.0
2018-Jul-16 07:58N 37°55' W 122°21'0 0.0
2018-Jul-16 07:22N 37°55' W 122°21'0 0.0
2018-Jul-16 06:58N 37°55' W 122°21'0 0.0
2018-Jul-16 06:28N 37°55' W 122°21'0 0.0
2018-Jul-16 05:58N 37°55' W 122°21'0 0.0
2018-Jul-16 05:28N 37°55' W 122°21'0 0.0
2018-Jul-16 04:58N 37°55' W 122°21'0 0.0
2018-Jul-16 04:28N 37°55' W 122°21'0 0.0
2018-Jul-16 03:58N 37°55' W 122°21'0 0.0
2018-Jul-16 03:28N 37°55' W 122°21'0 0.0
2018-Jul-16 02:58N 37°55' W 122°21'0 0.0
2018-Jul-16 02:28N 37°55' W 122°21'0 0.0
2018-Jul-16 01:58N 37°55' W 122°21'0 0.0
2018-Jul-16 01:28N 37°55' W 122°21'0 0.0
2018-Jul-16 00:55N 37°55' W 122°21'0 0.0
2018-Jul-16 00:28N 37°55' W 122°21'0 0.0
2018-Jul-15 23:55N 37°55' W 122°21'0 0.0
2018-Jul-15 23:28N 37°55' W 122°21'0 0.0
2018-Jul-15 22:58N 37°55' W 122°21'0 0.0
2018-Jul-15 22:22N 37°55' W 122°21'0 0.0
2018-Jul-15 21:58N 37°55' W 122°21'0 0.0
2018-Jul-15 21:28N 37°55' W 122°21'0 0.0
2018-Jul-15 20:55N 37°55' W 122°21'0 0.0
2018-Jul-15 20:28N 37°55' W 122°21'0 0.0
2018-Jul-15 19:55N 37°55' W 122°21'0 0.0
2018-Jul-15 19:25N 37°55' W 122°21'0 0.0
2018-Jul-15 18:58N 37°55' W 122°21'0 0.0
2018-Jul-15 18:28N 37°55' W 122°21'0 0.0
2018-Jul-15 17:58N 37°55' W 122°21'0 0.0
2018-Jul-15 17:28N 37°55' W 122°21'0 0.0
2018-Jul-15 16:58N 37°55' W 122°21'0 0.0
2018-Jul-15 16:28N 37°55' W 122°21'0 0.0
2018-Jul-15 15:58N 37°55' W 122°21'0 0.0
2018-Jul-15 15:28N 37°55' W 122°21'0 0.0
2018-Jul-15 14:55N 37°55' W 122°21'0 0.0
2018-Jul-15 14:25N 37°55' W 122°21'0 0.0
2018-Jul-15 13:58N 37°55' W 122°21'0 0.0
2018-Jul-15 13:28N 37°55' W 122°21'0 0.0
2018-Jul-15 12:58N 37°55' W 122°21'0 0.0
2018-Jul-15 12:28N 37°55' W 122°21'0 0.0
2018-Jul-15 11:58N 37°55' W 122°21'0 0.0
2018-Jul-15 11:28N 37°55' W 122°21'0 0.0
2018-Jul-15 10:58N 37°55' W 122°21'0 0.0
2018-Jul-15 10:28N 37°55' W 122°21'0 0.0
2018-Jul-15 09:58N 37°55' W 122°21'0 0.0
2018-Jul-15 09:28N 37°55' W 122°21'0 0.0
2018-Jul-15 08:55N 37°55' W 122°21'0 0.0
2018-Jul-15 08:28N 37°55' W 122°21'0 0.0
2018-Jul-15 07:55N 37°55' W 122°21'0 0.0
2018-Jul-15 07:28N 37°55' W 122°21'0 0.0
2018-Jul-15 06:58N 37°55' W 122°21'0 0.0
2018-Jul-15 06:28N 37°55' W 122°21'0 0.0
2018-Jul-15 05:58N 37°55' W 122°21'0 0.1
2018-Jul-15 05:30N 37°55' W 122°21'3 5.1
2018-Jul-15 05:00N 37°53' W 122°23'4 7.5
2018-Jul-15 04:29N 37°49' W 122°23'2 4.4
2018-Jul-15 03:59N 37°47' W 122°23'0 0.0
2018-Jul-15 03:29N 37°47' W 122°23'2 4.6
2018-Jul-15 03:00N 37°49' W 122°24'3 6.2
2018-Jul-15 02:30N 37°49' W 122°28'2 4.6
2018-Jul-15 02:00N 37°49' W 122°25'3 5.3
2018-Jul-15 01:30N 37°47' W 122°23'0 0.0
2018-Jul-15 01:00N 37°47' W 122°23'0 0.0
2018-Jul-15 00:30N 37°47' W 122°23'0 0.0
2018-Jul-15 00:00N 37°47' W 122°23'0 0.0
2018-Jul-14 23:30N 37°47' W 122°23'0 0.0
2018-Jul-14 23:00N 37°47' W 122°23'0 0.0
2018-Jul-14 22:30N 37°47' W 122°23'0 0.1
2018-Jul-14 22:00N 37°47' W 122°23'3 6.4
2018-Jul-14 21:30N 37°49' W 122°26'1 1.8
2018-Jul-14 21:00N 37°49' W 122°27'3 5.4
2018-Jul-14 20:30N 37°49' W 122°24'2 3.0
2018-Jul-14 19:55N 37°47' W 122°23'0 0.0
2018-Jul-14 19:30N 37°47' W 122°23'4 8.3
2018-Jul-14 19:00N 37°51' W 122°23'3 6.4
2018-Jul-14 18:30N 37°54' W 122°23'2 3.5
2018-Jul-14 17:59N 37°55' W 122°21'0 0.0
2018-Jul-14 17:30N 37°55' W 122°21'0 0.0
2018-Jul-14 16:59N 37°55' W 122°21'0 0.0
2018-Jul-14 16:29N 37°55' W 122°21'0 0.0
2018-Jul-14 15:59N 37°55' W 122°21'0 0.0
2018-Jul-14 15:25N 37°55' W 122°21'0 0.0
2018-Jul-14 14:58N 37°55' W 122°21'0 0.0
2018-Jul-14 14:29N 37°55' W 122°21'0 0.0
2018-Jul-14 13:29N 37°55' W 122°21'0 0.0
2018-Jul-14 13:00N 37°55' W 122°21'0 0.0
2018-Jul-14 12:30N 37°55' W 122°21'0 0.0
2018-Jul-14 12:00N 37°55' W 122°21'0 0.0
2018-Jul-14 11:22N 37°55' W 122°21'0 0.0
2018-Jul-14 10:58N 37°55' W 122°21'0 0.0
2018-Jul-14 10:29N 37°55' W 122°21'0 0.0
2018-Jul-14 09:58N 37°55' W 122°21'0 0.0
2018-Jul-14 09:29N 37°55' W 122°21'0 0.0
2018-Jul-14 08:59N 37°55' W 122°21'0 0.0
2018-Jul-14 08:29N 37°55' W 122°21'0 0.0
2018-Jul-14 07:59N 37°55' W 122°21'0 0.0
2018-Jul-14 07:30N 37°55' W 122°21'0 0.0
2018-Jul-14 06:59N 37°55' W 122°21'1 2.5
2018-Jul-14 06:31N 37°54' W 122°22'3 6.1
2018-Jul-14 06:01N 37°51' W 122°23'3 6.6
2018-Jul-14 05:31N 37°48' W 122°21'4 7.3
2018-Jul-14 05:01N 37°47' W 122°16'0 0.5
2018-Jul-14 04:30N 37°47' W 122°16'3 6.9
2018-Jul-14 04:00N 37°47' W 122°21'2 4.3
2018-Jul-14 03:30N 37°47' W 122°23'0 0.0
2018-Jul-14 03:00N 37°47' W 122°23'0 0.1
2018-Jul-14 02:29N 37°47' W 122°23'0 0.0
2018-Jul-14 01:58N 37°47' W 122°23'1 1.5
2018-Jul-14 01:30N 37°47' W 122°23'4 7.0
2018-Jul-14 00:59N 37°48' W 122°18'2 3.3
2018-Jul-14 00:25N 37°47' W 122°16'0 0.0
2018-Jul-14 00:01N 37°47' W 122°16'3 5.2
2018-Jul-13 23:31N 37°48' W 122°19'4 7.1
2018-Jul-13 22:59N 37°51' W 122°22'4 7.8
2018-Jul-13 22:31N 37°54' W 122°24'2 4.1
2018-Jul-13 22:01N 37°55' W 122°21'0 0.0
2018-Jul-13 21:30N 37°55' W 122°21'0 0.0
2018-Jul-13 20:59N 37°55' W 122°21'0 0.0
2018-Jul-13 20:31N 37°55' W 122°21'0 0.0
2018-Jul-13 20:00N 37°55' W 122°21'0 0.0
2018-Jul-13 19:31N 37°55' W 122°21'0 0.0
2018-Jul-13 19:00N 37°55' W 122°21'0 0.0
2018-Jul-13 18:30N 37°55' W 122°21'0 0.0
2018-Jul-13 18:00N 37°55' W 122°21'0 0.0
2018-Jul-13 17:30N 37°55' W 122°21'0 0.0
2018-Jul-13 16:57N 37°55' W 122°21'0 0.0
2018-Jul-13 16:30N 37°55' W 122°21'0 0.0
2018-Jul-13 15:59N 37°55' W 122°21'0 0.0
2018-Jul-13 15:30N 37°55' W 122°21'0 0.0
2018-Jul-13 15:00N 37°55' W 122°21'0 0.0
2018-Jul-13 14:00N 37°55' W 122°21'0 0.0
2018-Jul-13 13:31N 37°55' W 122°21'0 0.0
2018-Jul-13 13:00N 37°55' W 122°21'0 0.0
2018-Jul-13 12:30N 37°55' W 122°21'0 0.0
2018-Jul-13 12:00N 37°55' W 122°21'0 0.0
2018-Jul-13 11:30N 37°55' W 122°21'0 0.0
2018-Jul-13 11:00N 37°55' W 122°21'0 0.0
2018-Jul-13 10:30N 37°55' W 122°21'0 0.0
2018-Jul-13 10:00N 37°55' W 122°21'0 0.0
2018-Jul-13 09:30N 37°55' W 122°21'0 0.0
2018-Jul-13 09:00N 37°55' W 122°21'0 0.0
2018-Jul-13 08:27N 37°55' W 122°21'0 0.0
2018-Jul-13 08:00N 37°55' W 122°21'0 0.0
2018-Jul-13 07:30N 37°55' W 122°21'0 0.0
2018-Jul-13 07:00N 37°55' W 122°21'0 0.0
2018-Jul-13 06:30N 37°55' W 122°21'0 0.0
2018-Jul-13 06:00N 37°55' W 122°21'0 0.0
2018-Jul-13 05:30N 37°55' W 122°21'0 0.0
2018-Jul-13 05:00N 37°55' W 122°21'0 0.0
2018-Jul-13 04:30N 37°55' W 122°21'0 0.0
2018-Jul-13 04:00N 37°55' W 122°21'0 0.0
2018-Jul-13 03:30N 37°55' W 122°21'0 0.0
2018-Jul-13 03:00N 37°55' W 122°21'0 0.0
2018-Jul-13 02:30N 37°55' W 122°21'0 0.0
2018-Jul-13 02:00N 37°55' W 122°21'0 0.0
2018-Jul-13 01:28N 37°55' W 122°21'0 0.0
2018-Jul-13 01:00N 37°55' W 122°21'0 0.0
2018-Jul-13 00:28N 37°55' W 122°21'0 0.0
2018-Jul-13 00:00N 37°55' W 122°21'0 0.0
2018-Jul-12 23:30N 37°55' W 122°21'0 0.0
2018-Jul-12 22:59N 37°55' W 122°21'0 0.0
2018-Jul-12 22:30N 37°55' W 122°21'0 0.0
2018-Jul-12 22:00N 37°55' W 122°21'0 0.0
2018-Jul-12 21:29N 37°55' W 122°21'0 0.0
2018-Jul-12 21:00N 37°55' W 122°21'0 0.0
2018-Jul-12 20:30N 37°55' W 122°21'0 0.0
2018-Jul-12 20:00N 37°55' W 122°21'0 0.0
2018-Jul-12 19:30N 37°55' W 122°21'0 0.0
2018-Jul-12 19:00N 37°55' W 122°21'0 0.0
2018-Jul-12 18:30N 37°55' W 122°21'0 0.0
2018-Jul-12 18:00N 37°55' W 122°21'0 0.0
2018-Jul-12 17:29N 37°55' W 122°21'  
Track history (hours):
 
Tides and Currents Weather Stations Pressure Air Temp Water Temp Dewpoint Dewpoint Depression Visibility Wind Speed Wind Dir Waves Ship Positions

Empress

Owner: Robertson Mr, Gerry K, Sausalito, CA. More information available from US FCC via Universal Licensing System and Coast Guard Vessel Documentation Center.

Last reported at 2018-Jul-22 17:28 UTC. Time now 2018-Jul-22 17:53 UTC.
Position N 37°55' W 122°21'.

Type: Pleasure craft. MMSI: 338142414.

Date/timePositionNaut miles runAvg speedWind from/ knotsBaromVisibWave heightAir tempDewpointWater temp
2018-Jul-22 17:28N 37°55' W 122°21'0 0.0
2018-Jul-22 16:58N 37°55' W 122°21'0 0.0
2018-Jul-22 16:28N 37°55' W 122°21'0 0.0
2018-Jul-22 15:55N 37°55' W 122°21'0 0.0
2018-Jul-22 14:58N 37°55' W 122°21'0 0.0
2018-Jul-22 14:25N 37°55' W 122°21'0 0.0
2018-Jul-22 13:58N 37°55' W 122°21'0 0.0
2018-Jul-22 13:28N 37°55' W 122°21'0 0.0
2018-Jul-22 12:58N 37°55' W 122°21'0 0.0
2018-Jul-22 12:28N 37°55' W 122°21'0 0.0
2018-Jul-22 11:49N 37°55' W 122°21'0 0.0
2018-Jul-22 11:28N 37°55' W 122°21'0 0.0
2018-Jul-22 10:55N 37°55' W 122°21'0 0.0
2018-Jul-22 10:25N 37°55' W 122°21'0 0.0
2018-Jul-22 09:58N 37°55' W 122°21'0 0.2
2018-Jul-22 09:30N 37°55' W 122°21'0 0.2
2018-Jul-22 09:00N 37°55' W 122°21'2 3.6
2018-Jul-22 08:30N 37°54' W 122°24'2 4.8
2018-Jul-22 08:00N 37°53' W 122°26'3 5.8
2018-Jul-22 07:30N 37°50' W 122°28'1 1.2
2018-Jul-22 07:00N 37°51' W 122°27'4 8.3
2018-Jul-22 06:30N 37°54' W 122°24'2 4.6
2018-Jul-22 05:59N 37°55' W 122°21'0 0.0
2018-Jul-22 05:29N 37°55' W 122°21'0 0.0
2018-Jul-22 04:59N 37°55' W 122°21'1 2.1
2018-Jul-22 04:30N 37°54' W 122°22'4 7.3
2018-Jul-22 04:00N 37°52' W 122°26'3 6.1
2018-Jul-22 03:30N 37°50' W 122°28'0 0.5
2018-Jul-22 03:00N 37°50' W 122°29'2 4.1
2018-Jul-22 02:30N 37°52' W 122°29'1 2.5
2018-Jul-22 02:00N 37°52' W 122°27'2 4.1
2018-Jul-22 01:30N 37°54' W 122°28'2 3.8
2018-Jul-22 01:00N 37°53' W 122°25'3 6.1
2018-Jul-22 00:30N 37°50' W 122°25'2 4.5
2018-Jul-22 00:00N 37°49' W 122°28'1 1.5
2018-Jul-21 23:28N 37°50' W 122°28'0 0.0
2018-Jul-21 22:58N 37°50' W 122°28'0 0.7
2018-Jul-21 22:30N 37°50' W 122°29'2 4.5
2018-Jul-21 22:00N 37°52' W 122°29'1 2.8
2018-Jul-21 21:29N 37°52' W 122°27'1 3.0
2018-Jul-21 21:00N 37°53' W 122°26'2 4.8
2018-Jul-21 20:30N 37°51' W 122°25'2 3.8
2018-Jul-21 20:00N 37°49' W 122°27'2 3.4
2018-Jul-21 19:31N 37°50' W 122°29'0 0.4
2018-Jul-21 18:58N 37°50' W 122°28'0 0.0
2018-Jul-21 18:27N 37°50' W 122°28'1 1.9
2018-Jul-21 18:00N 37°51' W 122°28'3 7.0
2018-Jul-21 17:30N 37°53' W 122°25'3 6.6
2018-Jul-21 17:00N 37°55' W 122°21'0 0.0
2018-Jul-21 16:30N 37°55' W 122°21'0 0.0
2018-Jul-21 16:00N 37°55' W 122°21'0 0.0
2018-Jul-21 15:30N 37°55' W 122°21'0 0.0
2018-Jul-21 15:00N 37°55' W 122°21'0 0.0
2018-Jul-21 14:30N 37°55' W 122°21'0 0.0
2018-Jul-21 13:27N 37°55' W 122°21'0 0.0
2018-Jul-21 13:00N 37°55' W 122°21'0 0.0
2018-Jul-21 12:30N 37°55' W 122°21'0 0.0
2018-Jul-21 12:00N 37°55' W 122°21'0 0.0
2018-Jul-21 11:30N 37°55' W 122°21'0 0.0
2018-Jul-21 11:00N 37°55' W 122°21'0 0.0
2018-Jul-21 10:30N 37°55' W 122°21'0 0.0
2018-Jul-21 10:00N 37°55' W 122°21'0 0.0
2018-Jul-21 09:30N 37°55' W 122°21'0 0.0
2018-Jul-21 09:00N 37°55' W 122°21'0 0.0
2018-Jul-21 08:30N 37°55' W 122°21'0 0.0
2018-Jul-21 08:00N 37°55' W 122°21'0 0.0
2018-Jul-21 07:30N 37°55' W 122°21'0 0.0
2018-Jul-21 07:00N 37°55' W 122°21'0 0.0
2018-Jul-21 06:30N 37°55' W 122°21'0 0.0
2018-Jul-21 06:00N 37°55' W 122°21'0 0.0
2018-Jul-21 05:30N 37°55' W 122°21'0 0.0
2018-Jul-21 05:00N 37°55' W 122°21'0 0.0
2018-Jul-21 04:30N 37°55' W 122°21'0 0.0
2018-Jul-21 04:00N 37°55' W 122°21'0 0.0
2018-Jul-21 03:30N 37°55' W 122°21'0 0.0
2018-Jul-21 03:00N 37°55' W 122°21'0 0.0
2018-Jul-21 02:27N 37°55' W 122°21'0 0.0
2018-Jul-21 02:00N 37°55' W 122°21'0 0.0
2018-Jul-21 01:30N 37°55' W 122°21'0 0.5
2018-Jul-21 01:00N 37°55' W 122°21'2 3.2
2018-Jul-21 00:30N 37°53' W 122°22'2 4.7
2018-Jul-20 23:58N 37°52' W 122°19'0 0.0
2018-Jul-20 23:28N 37°52' W 122°19'0 0.0
2018-Jul-20 22:58N 37°52' W 122°19'0 0.1
2018-Jul-20 22:29N 37°52' W 122°19'3 6.7
2018-Jul-20 22:00N 37°53' W 122°23'2 3.5
2018-Jul-20 21:27N 37°55' W 122°21'0 0.0
2018-Jul-20 20:57N 37°55' W 122°21'0 0.0
2018-Jul-20 20:27N 37°55' W 122°21'0 0.0
2018-Jul-20 20:00N 37°55' W 122°21'0 0.0
2018-Jul-20 19:30N 37°55' W 122°21'0 0.0
2018-Jul-20 19:00N 37°55' W 122°21'0 0.0
2018-Jul-20 18:30N 37°55' W 122°21'0 0.0
2018-Jul-20 18:00N 37°55' W 122°21'0 0.0
2018-Jul-20 17:27N 37°55' W 122°21'0 0.0
2018-Jul-20 17:00N 37°55' W 122°21'0 0.0
2018-Jul-20 16:30N 37°55' W 122°21'0 0.0
2018-Jul-20 16:00N 37°55' W 122°21'0 0.0
2018-Jul-20 15:24N 37°55' W 122°21'0 0.0
2018-Jul-20 15:00N 37°55' W 122°21'0 0.0
2018-Jul-20 14:27N 37°55' W 122°21'0 0.0
2018-Jul-20 14:00N 37°55' W 122°21'0 0.0
2018-Jul-20 13:30N 37°55' W 122°21'0 0.0
2018-Jul-20 13:00N 37°55' W 122°21'0 0.0
2018-Jul-20 12:30N 37°55' W 122°21'0 0.0
2018-Jul-20 12:00N 37°55' W 122°21'0 0.0
2018-Jul-20 11:30N 37°55' W 122°21'0 0.0
2018-Jul-20 11:00N 37°55' W 122°21'0 0.0
2018-Jul-20 10:30N 37°55' W 122°21'0 0.0
2018-Jul-20 10:00N 37°55' W 122°21'0 0.0
2018-Jul-20 09:30N 37°55' W 122°21'0 0.0
2018-Jul-20 09:00N 37°55' W 122°21'0 0.0
2018-Jul-20 08:30N 37°55' W 122°21'0 0.0
2018-Jul-20 08:00N 37°55' W 122°21'0 0.0
2018-Jul-20 07:30N 37°55' W 122°21'2 4.3
2018-Jul-20 07:00N 37°54' W 122°23'4 7.6
2018-Jul-20 06:31N 37°50' W 122°23'3 5.7
2018-Jul-20 05:58N 37°47' W 122°23'0 0.5
2018-Jul-20 05:30N 37°47' W 122°23'0 0.5
2018-Jul-20 05:00N 37°47' W 122°23'2 4.1
2018-Jul-20 04:30N 37°49' W 122°24'2 4.1
2018-Jul-20 04:00N 37°50' W 122°26'1 2.5
2018-Jul-20 03:30N 37°49' W 122°28'3 6.8
2018-Jul-20 03:00N 37°48' W 122°23'1 2.0
2018-Jul-20 02:28N 37°47' W 122°23'0 0.1
2018-Jul-20 02:00N 37°47' W 122°23'3 6.6
2018-Jul-20 01:30N 37°50' W 122°23'3 6.9
2018-Jul-20 01:00N 37°54' W 122°24'2 4.3
2018-Jul-20 00:28N 37°55' W 122°21'0 0.0
2018-Jul-19 23:58N 37°55' W 122°21'0 0.0
2018-Jul-19 23:28N 37°55' W 122°21'0 0.0
2018-Jul-19 22:49N 37°55' W 122°21'0 0.0
2018-Jul-19 22:28N 37°55' W 122°21'0 0.0
2018-Jul-19 21:58N 37°55' W 122°21'0 0.0
2018-Jul-19 21:28N 37°55' W 122°21'0 0.0
2018-Jul-19 20:55N 37°55' W 122°21'0 0.0
2018-Jul-19 20:28N 37°55' W 122°21'0 0.0
2018-Jul-19 19:58N 37°55' W 122°21'0 0.0
2018-Jul-19 19:28N 37°55' W 122°21'0 0.0
2018-Jul-19 18:58N 37°55' W 122°21'0 0.0
2018-Jul-19 18:25N 37°55' W 122°21'0 0.0
2018-Jul-19 17:57N 37°55' W 122°21'0 0.0
2018-Jul-19 17:30N 37°55' W 122°21'0 0.0
2018-Jul-19 17:00N 37°55' W 122°21'0 0.0
2018-Jul-19 16:24N 37°55' W 122°21'0 0.0
2018-Jul-19 15:54N 37°55' W 122°21'0 0.0
2018-Jul-19 15:30N 37°55' W 122°21'0 0.0
2018-Jul-19 15:00N 37°55' W 122°21'0 0.0
2018-Jul-19 14:30N 37°55' W 122°21'0 0.0
2018-Jul-19 13:30N 37°55' W 122°21'0 0.0
2018-Jul-19 13:00N 37°55' W 122°21'0 0.0
2018-Jul-19 12:30N 37°55' W 122°21'0 0.0
2018-Jul-19 12:00N 37°55' W 122°21'0 0.0
2018-Jul-19 11:30N 37°55' W 122°21'0 0.0
2018-Jul-19 11:00N 37°55' W 122°21'0 0.0
2018-Jul-19 10:30N 37°55' W 122°21'0 0.0
2018-Jul-19 10:00N 37°55' W 122°21'0 0.0
2018-Jul-19 09:30N 37°55' W 122°21'0 0.0
2018-Jul-19 09:00N 37°55' W 122°21'0 0.0
2018-Jul-19 08:30N 37°55' W 122°21'0 0.0
2018-Jul-19 08:00N 37°55' W 122°21'0 0.0
2018-Jul-19 07:27N 37°55' W 122°21'0 0.0
2018-Jul-19 07:00N 37°55' W 122°21'0 0.0
2018-Jul-19 06:30N 37°55' W 122°21'0 0.0
2018-Jul-19 06:00N 37°55' W 122°21'0 0.0
2018-Jul-19 05:30N 37°55' W 122°21'0 0.0
2018-Jul-19 05:00N 37°55' W 122°21'0 0.0
2018-Jul-19 04:30N 37°55' W 122°21'0 0.0
2018-Jul-19 04:00N 37°55' W 122°21'0 0.0
2018-Jul-19 03:30N 37°55' W 122°21'0 0.0
2018-Jul-19 03:00N 37°55' W 122°21'0 0.0
2018-Jul-19 02:30N 37°55' W 122°21'0 0.0
2018-Jul-19 02:00N 37°55' W 122°21'0 0.0
2018-Jul-19 01:30N 37°55' W 122°21'0 0.0
2018-Jul-19 00:57N 37°55' W 122°21'0 0.0
2018-Jul-19 00:30N 37°55' W 122°21'0 0.0
2018-Jul-19 00:00N 37°55' W 122°21'0 0.0
2018-Jul-18 23:30N 37°55' W 122°21'0 0.0
2018-Jul-18 23:00N 37°55' W 122°21'0 0.0
2018-Jul-18 22:30N 37°55' W 122°21'0 0.0
2018-Jul-18 22:00N 37°55' W 122°21'0 0.0
2018-Jul-18 21:30N 37°55' W 122°21'0 0.0
2018-Jul-18 21:00N 37°55' W 122°21'0 0.0
2018-Jul-18 20:30N 37°55' W 122°21'0 0.0
2018-Jul-18 19:59N 37°55' W 122°21'0 0.0
2018-Jul-18 19:29N 37°55' W 122°21'0 0.0
2018-Jul-18 18:59N 37°55' W 122°21'0 0.0
2018-Jul-18 18:29N 37°55' W 122°21'0 0.0
2018-Jul-18 17:59N 37°55' W 122°21'0 0.0
2018-Jul-18 17:29N 37°55' W 122°21'0 0.0
2018-Jul-18 16:53N 37°55' W 122°21'0 0.0
2018-Jul-18 16:29N 37°55' W 122°21'0 0.0
2018-Jul-18 15:59N 37°55' W 122°21'0 0.0
2018-Jul-18 15:29N 37°55' W 122°21'0 0.0
2018-Jul-18 14:44N 37°55' W 122°21'0 0.0
2018-Jul-18 14:26N 37°55' W 122°21'0 0.0
2018-Jul-18 13:26N 37°55' W 122°21'0 0.0
2018-Jul-18 12:56N 37°55' W 122°21'0 0.0
2018-Jul-18 12:26N 37°55' W 122°21'0 0.0
2018-Jul-18 11:44N 37°55' W 122°21'0 0.0
2018-Jul-18 11:26N 37°55' W 122°21'0 0.0
2018-Jul-18 10:26N 37°55' W 122°21'0 0.0
2018-Jul-18 09:59N 37°55' W 122°21'0 0.0
2018-Jul-18 09:26N 37°55' W 122°21'0 0.0
2018-Jul-18 08:59N 37°55' W 122°21'0 0.0
2018-Jul-18 08:29N 37°55' W 122°21'0 0.0
2018-Jul-18 07:56N 37°55' W 122°21'0 0.0
2018-Jul-18 07:23N 37°55' W 122°21'0 0.0
2018-Jul-18 06:59N 37°55' W 122°21'0 0.0
2018-Jul-18 06:29N 37°55' W 122°21'0 0.0
2018-Jul-18 05:59N 37°55' W 122°21'0 0.0
2018-Jul-18 05:29N 37°55' W 122°21'0 0.0
2018-Jul-18 04:59N 37°55' W 122°21'0 0.0
2018-Jul-18 04:26N 37°55' W 122°21'0 0.0
2018-Jul-18 03:59N 37°55' W 122°21'0 0.0
2018-Jul-18 03:29N 37°55' W 122°21'0 0.0
2018-Jul-18 02:59N 37°55' W 122°21'0 0.0
2018-Jul-18 02:23N 37°55' W 122°21'0 0.0
2018-Jul-18 01:59N 37°55' W 122°21'0 0.0
2018-Jul-18 01:26N 37°55' W 122°21'0 0.0
2018-Jul-18 00:59N 37°55' W 122°21'0 0.0
2018-Jul-18 00:23N 37°55' W 122°21'0 0.0
2018-Jul-17 23:56N 37°55' W 122°21'0 0.0
2018-Jul-17 23:29N 37°55' W 122°21'0 0.0
2018-Jul-17 22:59N 37°55' W 122°21'0 0.0
2018-Jul-17 22:29N 37°55' W 122°21'0 0.0
2018-Jul-17 21:59N 37°55' W 122°21'0 0.0
2018-Jul-17 21:26N 37°55' W 122°21'0 0.0
2018-Jul-17 20:56N 37°55' W 122°21'0 0.0
2018-Jul-17 20:26N 37°55' W 122°21'0 0.0
2018-Jul-17 19:59N 37°55' W 122°21'0 0.0
2018-Jul-17 19:26N 37°55' W 122°21'0 0.0
2018-Jul-17 18:59N 37°55' W 122°21'0 0.0
2018-Jul-17 18:29N 37°55' W 122°21'0 0.0
2018-Jul-17 17:56N 37°55' W 122°21'0 0.0
2018-Jul-17 17:29N 37°55' W 122°21'0 0.0
2018-Jul-17 16:59N 37°55' W 122°21'0 0.0
2018-Jul-17 16:29N 37°55' W 122°21'0 0.0
2018-Jul-17 15:59N 37°55' W 122°21'0 0.0
2018-Jul-17 15:29N 37°55' W 122°21'0 0.0
2018-Jul-17 14:59N 37°55' W 122°21'0 0.0
2018-Jul-17 14:29N 37°55' W 122°21'0 0.0
2018-Jul-17 13:59N 37°55' W 122°21'0 0.0
2018-Jul-17 13:26N 37°55' W 122°21'0 0.0
2018-Jul-17 12:59N 37°55' W 122°21'0 0.0
2018-Jul-17 12:29N 37°55' W 122°21'0 0.0
2018-Jul-17 11:59N 37°55' W 122°21'0 0.0
2018-Jul-17 11:29N 37°55' W 122°21'0 0.0
2018-Jul-17 10:59N 37°55' W 122°21'0 0.0
2018-Jul-17 10:29N 37°55' W 122°21'0 0.0
2018-Jul-17 09:59N 37°55' W 122°21'0 0.0
2018-Jul-17 09:29N 37°55' W 122°21'0 0.0
2018-Jul-17 08:59N 37°55' W 122°21'0 0.0
2018-Jul-17 08:29N 37°55' W 122°21'0 0.0
2018-Jul-17 07:59N 37°55' W 122°21'0 0.0
2018-Jul-17 07:29N 37°55' W 122°21'0 0.0
2018-Jul-17 06:59N 37°55' W 122°21'0 0.0
2018-Jul-17 06:29N 37°55' W 122°21'0 0.0
2018-Jul-17 05:59N 37°55' W 122°21'0 0.0
2018-Jul-17 05:28N 37°55' W 122°21'0 0.0
2018-Jul-17 04:58N 37°55' W 122°21'0 0.0
2018-Jul-17 04:28N 37°55' W 122°21'0 0.0
2018-Jul-17 03:58N 37°55' W 122°21'0 0.0
2018-Jul-17 03:28N 37°55' W 122°21'0 0.0
2018-Jul-17 02:58N 37°55' W 122°21'0 0.0
2018-Jul-17 02:28N 37°55' W 122°21'0 0.0
2018-Jul-17 01:58N 37°55' W 122°21'0 0.0
2018-Jul-17 01:28N 37°55' W 122°21'0 0.0
2018-Jul-17 00:58N 37°55' W 122°21'0 0.0
2018-Jul-17 00:28N 37°55' W 122°21'0 0.0
2018-Jul-16 23:28N 37°55' W 122°21'0 0.0
2018-Jul-16 22:58N 37°55' W 122°21'0 0.0
2018-Jul-16 22:28N 37°55' W 122°21'0 0.0
2018-Jul-16 21:55N 37°55' W 122°21'0 0.0
2018-Jul-16 21:28N 37°55' W 122°21'0 0.0
2018-Jul-16 20:58N 37°55' W 122°21'0 0.0
2018-Jul-16 20:28N 37°55' W 122°21'0 0.0
2018-Jul-16 19:58N 37°55' W 122°21'0 0.0
2018-Jul-16 19:28N 37°55' W 122°21'0 0.0
2018-Jul-16 18:58N 37°55' W 122°21'0 0.0
2018-Jul-16 18:28N 37°55' W 122°21'0 0.0
2018-Jul-16 17:55N 37°55' W 122°21'0 0.0
2018-Jul-16 17:28N 37°55' W 122°21'0 0.0
2018-Jul-16 16:58N 37°55' W 122°21'0 0.0
2018-Jul-16 16:28N 37°55' W 122°21'0 0.0
2018-Jul-16 15:58N 37°55' W 122°21'0 0.0
2018-Jul-16 15:22N 37°55' W 122°21'0 0.0
2018-Jul-16 14:58N 37°55' W 122°21'0 0.0
2018-Jul-16 14:22N 37°55' W 122°21'0 0.0
2018-Jul-16 13:58N 37°55' W 122°21'0 0.0
2018-Jul-16 13:28N 37°55' W 122°21'0 0.0
2018-Jul-16 12:58N 37°55' W 122°21'0 0.0
2018-Jul-16 12:28N 37°55' W 122°21'0 0.0
2018-Jul-16 11:58N 37°55' W 122°21'0 0.0
2018-Jul-16 11:28N 37°55' W 122°21'0 0.0
2018-Jul-16 10:58N 37°55' W 122°21'0 0.0
2018-Jul-16 10:28N 37°55' W 122°21'0 0.1
2018-Jul-16 09:58N 37°55' W 122°21'0 0.1
2018-Jul-16 09:28N 37°55' W 122°21'0 0.0
2018-Jul-16 08:58N 37°55' W 122°21'0 0.0
2018-Jul-16 08:28N 37°55' W 122°21'0 0.0
2018-Jul-16 07:58N 37°55' W 122°21'0 0.0
2018-Jul-16 07:22N 37°55' W 122°21'0 0.0
2018-Jul-16 06:58N 37°55' W 122°21'0 0.0
2018-Jul-16 06:28N 37°55' W 122°21'0 0.0
2018-Jul-16 05:58N 37°55' W 122°21'0 0.0
2018-Jul-16 05:28N 37°55' W 122°21'0 0.0
2018-Jul-16 04:58N 37°55' W 122°21'0 0.0
2018-Jul-16 04:28N 37°55' W 122°21'0 0.0
2018-Jul-16 03:58N 37°55' W 122°21'0 0.0
2018-Jul-16 03:28N 37°55' W 122°21'0 0.0
2018-Jul-16 02:58N 37°55' W 122°21'0 0.0
2018-Jul-16 02:28N 37°55' W 122°21'0 0.0
2018-Jul-16 01:58N 37°55' W 122°21'0 0.0
2018-Jul-16 01:28N 37°55' W 122°21'0 0.0
2018-Jul-16 00:55N 37°55' W 122°21'0 0.0
2018-Jul-16 00:28N 37°55' W 122°21'0 0.0
2018-Jul-15 23:55N 37°55' W 122°21'0 0.0
2018-Jul-15 23:28N 37°55' W 122°21'0 0.0
2018-Jul-15 22:58N 37°55' W 122°21'0 0.0
2018-Jul-15 22:22N 37°55' W 122°21'0 0.0
2018-Jul-15 21:58N 37°55' W 122°21'0 0.0
2018-Jul-15 21:28N 37°55' W 122°21'0 0.0
2018-Jul-15 20:55N 37°55' W 122°21'0 0.0
2018-Jul-15 20:28N 37°55' W 122°21'0 0.0
2018-Jul-15 19:55N 37°55' W 122°21'0 0.0
2018-Jul-15 19:25N 37°55' W 122°21'0 0.0
2018-Jul-15 18:58N 37°55' W 122°21'0 0.0
2018-Jul-15 18:28N 37°55' W 122°21'0 0.0
2018-Jul-15 17:58N 37°55' W 122°21'0 0.0
2018-Jul-15 17:28N 37°55' W 122°21'0 0.0
2018-Jul-15 16:58N 37°55' W 122°21'0 0.0
2018-Jul-15 16:28N 37°55' W 122°21'0 0.0
2018-Jul-15 15:58N 37°55' W 122°21'0 0.0
2018-Jul-15 15:28N 37°55' W 122°21'0 0.0
2018-Jul-15 14:55N 37°55' W 122°21'0 0.0
2018-Jul-15 14:25N 37°55' W 122°21'0 0.0
2018-Jul-15 13:58N 37°55' W 122°21'0 0.0
2018-Jul-15 13:28N 37°55' W 122°21'0 0.0
2018-Jul-15 12:58N 37°55' W 122°21'0 0.0
2018-Jul-15 12:28N 37°55' W 122°21'0 0.0
2018-Jul-15 11:58N 37°55' W 122°21'0 0.0
2018-Jul-15 11:28N 37°55' W 122°21'0 0.0
2018-Jul-15 10:58N 37°55' W 122°21'0 0.0
2018-Jul-15 10:28N 37°55' W 122°21'0 0.0
2018-Jul-15 09:58N 37°55' W 122°21'0 0.0
2018-Jul-15 09:28N 37°55' W 122°21'0 0.0
2018-Jul-15 08:55N 37°55' W 122°21'0 0.0
2018-Jul-15 08:28N 37°55' W 122°21'0 0.0
2018-Jul-15 07:55N 37°55' W 122°21'0 0.0
2018-Jul-15 07:28N 37°55' W 122°21'0 0.0
2018-Jul-15 06:58N 37°55' W 122°21'0 0.0
2018-Jul-15 06:28N 37°55' W 122°21'0 0.0
2018-Jul-15 05:58N 37°55' W 122°21'0 0.1
2018-Jul-15 05:30N 37°55' W 122°21'3 5.1
2018-Jul-15 05:00N 37°53' W 122°23'4 7.5
2018-Jul-15 04:29N 37°49' W 122°23'2 4.4
2018-Jul-15 03:59N 37°47' W 122°23'0 0.0
2018-Jul-15 03:29N 37°47' W 122°23'2 4.6
2018-Jul-15 03:00N 37°49' W 122°24'3 6.2
2018-Jul-15 02:30N 37°49' W 122°28'2 4.6
2018-Jul-15 02:00N 37°49' W 122°25'3 5.3
2018-Jul-15 01:30N 37°47' W 122°23'0 0.0
2018-Jul-15 01:00N 37°47' W 122°23'0 0.0
2018-Jul-15 00:30N 37°47' W 122°23'0 0.0
2018-Jul-15 00:00N 37°47' W 122°23'0 0.0
2018-Jul-14 23:30N 37°47' W 122°23'0 0.0
2018-Jul-14 23:00N 37°47' W 122°23'0 0.0
2018-Jul-14 22:30N 37°47' W 122°23'0 0.1
2018-Jul-14 22:00N 37°47' W 122°23'3 6.4
2018-Jul-14 21:30N 37°49' W 122°26'1 1.8
2018-Jul-14 21:00N 37°49' W 122°27'3 5.4
2018-Jul-14 20:30N 37°49' W 122°24'2 3.0
2018-Jul-14 19:55N 37°47' W 122°23'0 0.0
2018-Jul-14 19:30N 37°47' W 122°23'4 8.3
2018-Jul-14 19:00N 37°51' W 122°23'3 6.4
2018-Jul-14 18:30N 37°54' W 122°23'2 3.5
2018-Jul-14 17:59N 37°55' W 122°21'0 0.0
2018-Jul-14 17:30N 37°55' W 122°21'0 0.0
2018-Jul-14 16:59N 37°55' W 122°21'0 0.0
2018-Jul-14 16:29N 37°55' W 122°21'0 0.0
2018-Jul-14 15:59N 37°55' W 122°21'0 0.0
2018-Jul-14 15:25N 37°55' W 122°21'0 0.0
2018-Jul-14 14:58N 37°55' W 122°21'0 0.0
2018-Jul-14 14:29N 37°55' W 122°21'0 0.0
2018-Jul-14 13:29N 37°55' W 122°21'0 0.0
2018-Jul-14 13:00N 37°55' W 122°21'0 0.0
2018-Jul-14 12:30N 37°55' W 122°21'0 0.0
2018-Jul-14 12:00N 37°55' W 122°21'0 0.0
2018-Jul-14 11:22N 37°55' W 122°21'0 0.0
2018-Jul-14 10:58N 37°55' W 122°21'0 0.0
2018-Jul-14 10:29N 37°55' W 122°21'0 0.0
2018-Jul-14 09:58N 37°55' W 122°21'0 0.0
2018-Jul-14 09:29N 37°55' W 122°21'0 0.0
2018-Jul-14 08:59N 37°55' W 122°21'0 0.0
2018-Jul-14 08:29N 37°55' W 122°21'0 0.0
2018-Jul-14 07:59N 37°55' W 122°21'0 0.0
2018-Jul-14 07:30N 37°55' W 122°21'0 0.0
2018-Jul-14 06:59N 37°55' W 122°21'1 2.5
2018-Jul-14 06:31N 37°54' W 122°22'3 6.1
2018-Jul-14 06:01N 37°51' W 122°23'3 6.6
2018-Jul-14 05:31N 37°48' W 122°21'4 7.3
2018-Jul-14 05:01N 37°47' W 122°16'0 0.5
2018-Jul-14 04:30N 37°47' W 122°16'3 6.9
2018-Jul-14 04:00N 37°47' W 122°21'2 4.3
2018-Jul-14 03:30N 37°47' W 122°23'0 0.0
2018-Jul-14 03:00N 37°47' W 122°23'0 0.1
2018-Jul-14 02:29N 37°47' W 122°23'0 0.0
2018-Jul-14 01:58N 37°47' W 122°23'1 1.5
2018-Jul-14 01:30N 37°47' W 122°23'4 7.0
2018-Jul-14 00:59N 37°48' W 122°18'2 3.3
2018-Jul-14 00:25N 37°47' W 122°16'0 0.0
2018-Jul-14 00:01N 37°47' W 122°16'3 5.2
2018-Jul-13 23:31N 37°48' W 122°19'4 7.1
2018-Jul-13 22:59N 37°51' W 122°22'4 7.8
2018-Jul-13 22:31N 37°54' W 122°24'2 4.1
2018-Jul-13 22:01N 37°55' W 122°21'0 0.0
2018-Jul-13 21:30N 37°55' W 122°21'0 0.0
2018-Jul-13 20:59N 37°55' W 122°21'0 0.0
2018-Jul-13 20:31N 37°55' W 122°21'0 0.0
2018-Jul-13 20:00N 37°55' W 122°21'0 0.0
2018-Jul-13 19:31N 37°55' W 122°21'0 0.0
2018-Jul-13 19:00N 37°55' W 122°21'0 0.0
2018-Jul-13 18:30N 37°55' W 122°21'0 0.0
2018-Jul-13 18:00N 37°55' W 122°21'0 0.0
2018-Jul-13 17:30N 37°55' W 122°21'0 0.0
2018-Jul-13 16:57N 37°55' W 122°21'0 0.0
2018-Jul-13 16:30N 37°55' W 122°21'0 0.0
2018-Jul-13 15:59N 37°55' W 122°21'0 0.0
2018-Jul-13 15:30N 37°55' W 122°21'0 0.0
2018-Jul-13 15:00N 37°55' W 122°21'0 0.0
2018-Jul-13 14:00N 37°55' W 122°21'0 0.0
2018-Jul-13 13:31N 37°55' W 122°21'0 0.0
2018-Jul-13 13:00N 37°55' W 122°21'0 0.0
2018-Jul-13 12:30N 37°55' W 122°21'0 0.0
2018-Jul-13 12:00N 37°55' W 122°21'0 0.0
2018-Jul-13 11:30N 37°55' W 122°21'0 0.0
2018-Jul-13 11:00N 37°55' W 122°21'0 0.0
2018-Jul-13 10:30N 37°55' W 122°21'0 0.0
2018-Jul-13 10:00N 37°55' W 122°21'0 0.0
2018-Jul-13 09:30N 37°55' W 122°21'0 0.0
2018-Jul-13 09:00N 37°55' W 122°21'0 0.0
2018-Jul-13 08:27N 37°55' W 122°21'0 0.0
2018-Jul-13 08:00N 37°55' W 122°21'0 0.0
2018-Jul-13 07:30N 37°55' W 122°21'0 0.0
2018-Jul-13 07:00N 37°55' W 122°21'0 0.0
2018-Jul-13 06:30N 37°55' W 122°21'0 0.0
2018-Jul-13 06:00N 37°55' W 122°21'0 0.0
2018-Jul-13 05:30N 37°55' W 122°21'0 0.0
2018-Jul-13 05:00N 37°55' W 122°21'0 0.0
2018-Jul-13 04:30N 37°55' W 122°21'0 0.0
2018-Jul-13 04:00N 37°55' W 122°21'0 0.0
2018-Jul-13 03:30N 37°55' W 122°21'0 0.0
2018-Jul-13 03:00N 37°55' W 122°21'0 0.0
2018-Jul-13 02:30N 37°55' W 122°21'0 0.0
2018-Jul-13 02:00N 37°55' W 122°21'0 0.0
2018-Jul-13 01:28N 37°55' W 122°21'0 0.0
2018-Jul-13 01:00N 37°55' W 122°21'0 0.0
2018-Jul-13 00:28N 37°55' W 122°21'0 0.0
2018-Jul-13 00:00N 37°55' W 122°21'0 0.0
2018-Jul-12 23:30N 37°55' W 122°21'0 0.0
2018-Jul-12 22:59N 37°55' W 122°21'0 0.0
2018-Jul-12 22:30N 37°55' W 122°21'0 0.0
2018-Jul-12 22:00N 37°55' W 122°21'0 0.0
2018-Jul-12 21:29N 37°55' W 122°21'0 0.0
2018-Jul-12 21:00N 37°55' W 122°21'0 0.0
2018-Jul-12 20:30N 37°55' W 122°21'0 0.0
2018-Jul-12 20:00N 37°55' W 122°21'0 0.0
2018-Jul-12 19:30N 37°55' W 122°21'0 0.0
2018-Jul-12 19:00N 37°55' W 122°21'0 0.0
2018-Jul-12 18:30N 37°55' W 122°21'0 0.0
2018-Jul-12 18:00N 37°55' W 122°21'0 0.0
2018-Jul-12 17:29N 37°55' W 122°21'  

Dump ship's entire track history